createdAt,value
2018-01-06T00:00:07.429Z,1.90
2018-01-06T00:02:35.756Z,1.58
2018-01-06T00:05:04.076Z,1.42
2018-01-06T00:07:32.396Z,1.75
2018-01-06T00:10:00.714Z,1.90
2018-01-06T00:12:29.042Z,1.30
2018-01-06T00:14:57.346Z,2.10
2018-01-06T00:17:25.681Z,1.90
2018-01-06T00:19:53.998Z,1.70
2018-01-06T00:22:22.342Z,1.83
2018-01-06T00:24:50.653Z,1.40
2018-01-06T00:27:19.015Z,1.83
2018-01-06T00:29:47.322Z,2.58
2018-01-06T00:32:15.654Z,2.15
2018-01-06T00:34:43.972Z,3.03
2018-01-06T00:37:12.305Z,2.35
2018-01-06T00:39:40.619Z,2.33
2018-01-06T00:42:08.950Z,3.62
2018-01-06T00:44:37.270Z,5.57
2018-01-06T00:47:05.613Z,2.83
2018-01-06T00:49:33.917Z,3.58
2018-01-06T00:52:02.241Z,3.10
2018-01-06T00:54:30.545Z,3.72
2018-01-06T00:56:58.878Z,4.78
2018-01-06T00:59:27.185Z,3.80
2018-01-06T01:01:55.546Z,3.97
2018-01-06T01:04:23.861Z,3.17
2018-01-06T01:06:52.193Z,3.40
2018-01-06T01:09:20.505Z,4.18
2018-01-06T01:11:48.833Z,3.53
2018-01-06T01:14:17.149Z,3.33
2018-01-06T01:16:45.481Z,4.22
2018-01-06T01:19:13.797Z,3.83
2018-01-06T01:21:42.133Z,3.50
2018-01-06T01:24:10.446Z,3.70
2018-01-06T01:26:38.773Z,4.07
2018-01-06T01:29:07.081Z,3.37
2018-01-06T01:31:35.418Z,3.30
2018-01-06T01:34:03.726Z,3.42
2018-01-06T01:36:32.060Z,3.15
2018-01-06T01:39:00.369Z,3.65
2018-01-06T01:41:28.706Z,3.00
2018-01-06T01:43:57.010Z,3.10
2018-01-06T01:46:25.333Z,3.15
2018-01-06T01:48:53.646Z,4.32
2018-01-06T01:51:21.981Z,2.97
2018-01-06T01:53:50.289Z,2.97
2018-01-06T01:56:18.652Z,3.00
2018-01-06T01:58:46.965Z,2.60
2018-01-06T02:01:15.269Z,3.25
2018-01-06T02:03:43.606Z,3.12
2018-01-06T02:06:11.920Z,3.03
2018-01-06T02:08:40.245Z,2.83
2018-01-06T02:11:08.558Z,3.62
2018-01-06T02:13:36.894Z,3.80
2018-01-06T02:16:05.206Z,3.15
2018-01-06T02:18:33.533Z,3.37
2018-01-06T02:21:01.845Z,2.45
2018-01-06T02:23:30.177Z,2.67
2018-01-06T02:25:58.495Z,2.30
2018-01-06T02:28:26.821Z,3.10
2018-01-06T02:30:55.145Z,2.90
2018-01-06T02:33:23.468Z,2.70
2018-01-06T02:35:51.781Z,3.33
2018-01-06T02:38:20.126Z,2.55
2018-01-06T02:40:48.453Z,3.30
2018-01-06T02:43:16.785Z,3.67
2018-01-06T02:45:45.101Z,2.78
2018-01-06T02:48:13.455Z,2.45
2018-01-06T02:50:41.788Z,3.40
2018-01-06T02:53:10.134Z,3.70
2018-01-06T02:55:38.437Z,3.00
2018-01-06T02:58:06.778Z,3.25
2018-01-06T03:00:35.107Z,3.72
2018-01-06T03:03:03.471Z,3.08
2018-01-06T03:05:31.810Z,4.10
2018-01-06T03:08:00.138Z,3.42
2018-01-06T03:10:28.449Z,3.87
2018-01-06T03:12:56.790Z,3.40
2018-01-06T03:15:25.106Z,4.50
2018-01-06T03:17:53.452Z,3.97
2018-01-06T03:20:21.767Z,4.20
2018-01-06T03:22:50.117Z,4.15
2018-01-06T03:25:18.410Z,4.30
2018-01-06T03:27:46.749Z,4.22
2018-01-06T03:30:15.064Z,4.15
2018-01-06T03:32:43.393Z,3.62
2018-01-06T03:35:11.709Z,4.90
2018-01-06T03:37:40.046Z,3.20
2018-01-06T03:40:08.363Z,3.70
2018-01-06T03:42:36.694Z,3.85
2018-01-06T03:45:05.007Z,3.67
2018-01-06T03:47:33.344Z,3.20
2018-01-06T03:50:01.654Z,3.97
2018-01-06T03:52:29.985Z,4.03
2018-01-06T03:54:58.294Z,2.92
2018-01-06T03:57:26.640Z,3.50
2018-01-06T03:59:54.977Z,3.97
2018-01-06T04:02:23.295Z,3.95
2018-01-06T04:04:51.625Z,3.25
2018-01-06T04:07:19.942Z,2.87
2018-01-06T04:09:48.294Z,2.90
2018-01-06T04:12:16.625Z,3.42
2018-01-06T04:14:44.957Z,4.97
2018-01-06T04:17:13.265Z,3.28
2018-01-06T04:19:41.597Z,3.55
2018-01-06T04:22:10.161Z,3.78
2018-01-06T04:24:38.493Z,4.65
2018-01-06T04:27:06.809Z,3.60
2018-01-06T04:29:35.145Z,3.75
2018-01-06T04:32:03.462Z,3.28
2018-01-06T04:34:31.806Z,4.20
2018-01-06T04:37:00.117Z,3.58
2018-01-06T04:39:28.448Z,4.25
2018-01-06T04:41:56.766Z,3.53
2018-01-06T04:44:25.100Z,3.70
2018-01-06T04:46:53.414Z,4.15
2018-01-06T04:49:21.750Z,4.62
2018-01-06T04:51:50.057Z,4.40
2018-01-06T04:54:18.402Z,5.70
2018-01-06T04:56:46.724Z,4.60
2018-01-06T04:59:15.059Z,4.35
2018-01-06T05:01:43.378Z,5.10
2018-01-06T05:04:11.707Z,4.05
2018-01-06T05:06:40.014Z,4.20
2018-01-06T05:09:08.341Z,3.10
2018-01-06T05:11:36.650Z,4.20
2018-01-06T05:14:05.000Z,4.30
2018-01-06T05:16:33.326Z,4.72
2018-01-06T05:19:01.662Z,5.30
2018-01-06T05:21:29.973Z,3.83
2018-01-06T05:23:58.313Z,3.12
2018-01-06T05:26:26.626Z,3.42
2018-01-06T05:28:55.078Z,3.70
2018-01-06T05:31:23.410Z,4.62
2018-01-06T05:33:51.754Z,3.45
2018-01-06T05:36:20.065Z,3.33
2018-01-06T05:38:48.406Z,4.18
2018-01-06T05:41:16.713Z,4.57
2018-01-06T05:43:45.050Z,5.22
2018-01-06T05:46:13.365Z,4.90
2018-01-06T05:48:41.712Z,3.60
2018-01-06T05:51:10.125Z,4.22
2018-01-06T05:53:38.495Z,4.30
2018-01-06T05:56:06.924Z,3.80
2018-01-06T05:58:35.258Z,4.15
2018-01-06T06:01:03.594Z,4.32
2018-01-06T06:03:31.937Z,4.62
2018-01-06T06:06:00.286Z,4.70
2018-01-06T06:08:28.593Z,4.65
2018-01-06T06:10:56.983Z,4.53
2018-01-06T06:13:25.326Z,3.53
2018-01-06T06:15:53.650Z,3.47
2018-01-06T06:18:21.975Z,3.90
2018-01-06T06:20:50.390Z,3.95
2018-01-06T06:23:18.768Z,4.50
2018-01-06T06:25:47.107Z,3.50
2018-01-06T06:28:15.489Z,3.78
2018-01-06T06:30:43.854Z,5.30
2018-01-06T06:33:12.184Z,3.85
2018-01-06T06:35:40.520Z,3.83
2018-01-06T06:38:08.829Z,3.53
2018-01-06T06:40:37.166Z,4.07
2018-01-06T06:43:05.486Z,5.12
2018-01-06T06:45:33.842Z,5.20
2018-01-06T06:48:02.167Z,4.45
2018-01-06T06:50:30.562Z,4.97
2018-01-06T06:52:58.873Z,5.90
2018-01-06T06:55:28.049Z,5.57
2018-01-06T06:57:56.406Z,6.62
2018-01-06T07:00:24.754Z,5.53
2018-01-06T07:02:53.096Z,5.40
2018-01-06T07:05:21.790Z,7.30
2018-01-06T07:07:50.090Z,6.20
2018-01-06T07:10:18.422Z,5.68
2018-01-06T07:12:46.746Z,5.40
2018-01-06T07:15:15.085Z,6.60
2018-01-06T07:17:43.394Z,4.78
2018-01-06T07:20:11.739Z,5.82
2018-01-06T07:22:40.063Z,7.10
2018-01-06T07:25:08.424Z,6.15
2018-01-06T07:27:36.746Z,6.82
2018-01-06T07:30:05.109Z,6.68
2018-01-06T07:32:33.423Z,8.20
2018-01-06T07:35:01.763Z,6.78
2018-01-06T07:37:30.075Z,6.40
2018-01-06T07:39:58.469Z,6.40
2018-01-06T07:42:26.846Z,7.40
2018-01-06T07:44:55.181Z,8.05
2018-01-06T07:47:23.493Z,6.22
2018-01-06T07:49:51.829Z,7.28
2018-01-06T07:52:20.159Z,5.57
2018-01-06T07:54:48.490Z,7.12
2018-01-06T07:57:16.838Z,7.47
2018-01-06T07:59:45.206Z,5.18
2018-01-06T08:02:13.526Z,5.87
2018-01-06T08:04:41.856Z,5.55
2018-01-06T08:07:10.214Z,6.50
2018-01-06T08:09:38.533Z,6.25
2018-01-06T08:12:06.878Z,6.07
2018-01-06T08:14:35.215Z,6.78
2018-01-06T08:17:03.550Z,6.07
2018-01-06T08:19:31.905Z,6.30
2018-01-06T08:22:00.246Z,5.95
2018-01-06T08:24:28.570Z,6.80
2018-01-06T08:26:56.921Z,6.78
2018-01-06T08:29:25.237Z,6.60
2018-01-06T08:31:53.576Z,6.20
2018-01-06T08:34:21.923Z,6.43
2018-01-06T08:36:50.267Z,6.40
2018-01-06T08:39:18.582Z,5.70
2018-01-06T08:41:46.938Z,5.72
2018-01-06T08:44:15.257Z,6.57
2018-01-06T08:46:43.609Z,6.37
2018-01-06T08:49:11.935Z,6.05
2018-01-06T08:51:40.291Z,5.60
2018-01-06T08:54:08.632Z,6.40
2018-01-06T08:56:36.967Z,6.10
2018-01-06T08:59:05.295Z,6.03
2018-01-06T09:01:33.661Z,6.62
2018-01-06T09:04:02.014Z,6.57
2018-01-06T09:06:30.355Z,6.70
2018-01-06T09:08:58.703Z,6.25
2018-01-06T09:11:27.049Z,7.85
2018-01-06T09:13:55.362Z,7.93
2018-01-06T09:16:23.709Z,7.12
2018-01-06T09:18:52.022Z,8.20
2018-01-06T09:21:20.386Z,7.57
2018-01-06T09:23:48.698Z,7.10
2018-01-06T09:26:17.047Z,8.40
2018-01-06T09:28:45.390Z,6.95
2018-01-06T09:31:13.743Z,8.40
2018-01-06T09:33:42.086Z,6.95
2018-01-06T09:36:10.446Z,7.97
2018-01-06T09:38:38.762Z,8.15
2018-01-06T09:41:07.478Z,8.83
2018-01-06T09:43:36.255Z,7.70
2018-01-06T09:46:05.527Z,7.40
2018-01-06T09:48:34.200Z,6.13
2018-01-06T09:51:03.119Z,7.43
2018-01-06T09:53:31.898Z,9.53
2018-01-06T09:56:00.635Z,8.00
2018-01-06T09:58:29.318Z,6.93
2018-01-06T10:00:58.012Z,8.52
2018-01-06T10:03:26.536Z,9.37
2018-01-06T10:05:55.184Z,8.47
2018-01-06T10:08:23.920Z,6.67
2018-01-06T10:10:52.579Z,7.30
2018-01-06T10:13:21.750Z,8.05
2018-01-06T10:15:50.788Z,7.47
2018-01-06T10:18:19.512Z,6.78
2018-01-06T10:20:48.209Z,7.27
2018-01-06T10:23:16.993Z,7.90
2018-01-06T10:25:45.629Z,8.55
2018-01-06T10:28:14.421Z,7.50
2018-01-06T10:30:43.136Z,8.07
2018-01-06T10:33:11.763Z,7.47
2018-01-06T10:35:41.365Z,7.93
2018-01-06T10:38:10.160Z,9.40
2018-01-06T10:40:38.848Z,10.00
2018-01-06T10:43:07.643Z,7.97
2018-01-06T10:45:36.274Z,8.70
2018-01-06T10:48:05.342Z,7.27
2018-01-06T10:50:33.964Z,7.87
2018-01-06T10:53:02.688Z,6.43
2018-01-06T10:55:31.333Z,7.33
2018-01-06T10:58:00.518Z,7.40
2018-01-06T11:00:34.664Z,7.23
2018-01-06T11:03:03.329Z,7.83
2018-01-06T11:05:31.946Z,7.18
2018-01-06T11:08:00.691Z,7.53
2018-01-06T11:10:29.820Z,8.95
2018-01-06T11:12:58.608Z,7.53
2018-01-06T11:15:29.350Z,8.47
2018-01-06T11:17:59.111Z,8.30
2018-01-06T11:20:28.203Z,7.93
2018-01-06T11:22:57.047Z,7.20
2018-01-06T11:25:28.929Z,7.65
2018-01-06T11:28:00.767Z,8.07
2018-01-06T11:30:30.733Z,8.50
2018-01-06T11:33:00.434Z,7.63
2018-01-06T11:35:30.375Z,7.62
2018-01-06T11:37:59.144Z,8.30
2018-01-06T11:40:28.768Z,8.73
2018-01-06T11:42:58.171Z,7.35
2018-01-06T11:45:27.785Z,8.60
2018-01-06T11:47:56.576Z,7.90
2018-01-06T11:50:25.228Z,7.80
2018-01-06T11:52:53.928Z,7.62
2018-01-06T11:55:23.019Z,7.93
2018-01-06T11:57:51.754Z,7.13
2018-01-06T12:00:20.424Z,7.53
2018-01-06T12:02:49.171Z,6.73
2018-01-06T12:05:17.835Z,6.90
2018-01-06T12:07:46.521Z,6.77
2018-01-06T12:10:15.183Z,7.62
2018-01-06T12:12:43.880Z,8.00
2018-01-06T12:15:12.557Z,6.53
2018-01-06T12:17:41.282Z,7.13
2018-01-06T12:20:10.618Z,5.83
2018-01-06T12:22:39.314Z,6.57
2018-01-06T12:25:07.962Z,5.33
2018-01-06T12:27:36.667Z,6.47
2018-01-06T12:30:05.314Z,6.93
2018-01-06T12:32:35.086Z,5.50
2018-01-06T12:35:04.481Z,6.47
2018-01-06T12:37:33.146Z,9.37
2018-01-06T12:40:01.825Z,6.30
2018-01-06T12:42:30.513Z,6.73
2018-01-06T12:44:59.162Z,6.97
2018-01-06T12:47:27.825Z,7.27
2018-01-06T12:49:56.459Z,6.40
2018-01-06T12:52:25.016Z,6.28
2018-01-06T12:54:53.685Z,6.27
2018-01-06T12:57:23.738Z,7.30
2018-01-06T12:59:52.506Z,6.27
2018-01-06T13:02:21.851Z,6.50
2018-01-06T13:04:50.530Z,8.03
2018-01-06T13:07:19.124Z,7.47
2018-01-06T13:09:47.891Z,5.78
2018-01-06T13:12:16.967Z,7.07
2018-01-06T13:14:45.909Z,5.97
2018-01-06T13:17:14.605Z,7.70
2018-01-06T13:19:43.716Z,8.30
2018-01-06T13:22:12.311Z,7.62
2018-01-06T13:24:41.086Z,8.03
2018-01-06T13:27:09.788Z,9.37
2018-01-06T13:29:38.466Z,8.53
2018-01-06T13:32:08.117Z,9.70
2018-01-06T13:34:36.844Z,9.27
2018-01-06T13:37:05.460Z,8.83
2018-01-06T13:39:34.180Z,7.50
2018-01-06T13:42:02.874Z,8.37
2018-01-06T13:44:31.493Z,8.32
2018-01-06T13:46:59.938Z,7.60
2018-01-06T13:49:28.282Z,8.95
2018-01-06T13:51:56.616Z,8.20
2018-01-06T13:54:24.961Z,9.23
2018-01-06T13:56:53.290Z,9.03
2018-01-06T13:59:21.637Z,8.20
2018-01-06T14:01:49.966Z,10.87
2018-01-06T14:04:18.316Z,10.67
2018-01-06T14:06:46.650Z,9.20
2018-01-06T14:09:15.027Z,9.87
2018-01-06T14:11:43.382Z,10.02
2018-01-06T14:14:12.473Z,8.43
2018-01-06T14:16:41.948Z,9.73
2018-01-06T14:19:10.612Z,8.90
2018-01-06T14:21:38.961Z,10.20
2018-01-06T14:24:07.342Z,8.90
2018-01-06T14:26:35.692Z,8.50
2018-01-06T14:29:04.059Z,8.93
2018-01-06T14:31:32.411Z,9.45
2018-01-06T14:34:00.759Z,8.75
2018-01-06T14:36:29.118Z,10.10
2018-01-06T14:38:57.582Z,10.45
2018-01-06T14:41:25.924Z,11.00
2018-01-06T14:43:54.348Z,10.20
2018-01-06T14:46:23.552Z,14.53
2018-01-06T14:48:51.910Z,18.27
2018-01-06T14:51:20.254Z,18.55
2018-01-06T14:53:49.058Z,12.37
2018-01-06T14:56:17.862Z,17.45
2018-01-06T14:58:46.267Z,13.10
2018-01-06T15:01:14.611Z,12.00
2018-01-06T15:03:42.978Z,12.70
2018-01-06T15:06:11.339Z,11.37
2018-01-06T15:08:39.756Z,12.47
2018-01-06T15:11:08.054Z,13.10
2018-01-06T15:13:36.398Z,12.37
2018-01-06T15:16:06.622Z,11.88
2018-01-06T15:18:34.954Z,11.50
2018-01-06T15:21:03.302Z,11.40
2018-01-06T15:23:31.753Z,12.73
2018-01-06T15:26:00.110Z,11.55
2018-01-06T15:28:28.430Z,12.82
2018-01-06T15:30:56.790Z,11.77
2018-01-06T15:33:25.128Z,13.50
2018-01-06T15:35:53.482Z,13.10
2018-01-06T15:38:21.818Z,13.87
2018-01-06T15:40:50.194Z,16.70
2018-01-06T15:43:18.531Z,16.83
2018-01-06T15:45:46.877Z,17.20
2018-01-06T15:48:15.209Z,16.60
2018-01-06T15:50:43.572Z,15.57
2018-01-06T15:53:11.910Z,15.67
2018-01-06T15:55:40.262Z,15.17
2018-01-06T15:58:08.602Z,15.30
2018-01-06T16:00:36.949Z,14.13
2018-01-06T16:03:05.294Z,15.77
2018-01-06T16:05:34.540Z,14.85
2018-01-06T16:08:02.875Z,15.57
2018-01-06T16:10:31.223Z,15.80
2018-01-06T16:12:59.563Z,16.60
2018-01-06T16:15:28.798Z,16.30
2018-01-06T16:17:57.126Z,16.10
2018-01-06T16:20:25.474Z,15.47
2018-01-06T16:22:53.818Z,14.90
2018-01-06T16:25:22.310Z,16.15
2018-01-06T16:27:50.983Z,16.90
2018-01-06T16:30:19.671Z,17.50
2018-01-06T16:32:48.168Z,18.43
2018-01-06T16:35:17.773Z,18.43
2018-01-06T16:37:46.340Z,17.93
2018-01-06T16:40:14.997Z,15.73
2018-01-06T16:42:43.449Z,15.30
2018-01-06T16:45:12.145Z,16.10
2018-01-06T16:47:40.586Z,16.43
2018-01-06T16:50:09.204Z,15.98
2018-01-06T16:52:37.718Z,15.57
2018-01-06T16:55:06.333Z,16.77
2018-01-06T16:57:35.335Z,15.97
2018-01-06T17:00:04.041Z,15.90
2018-01-06T17:02:32.453Z,14.30
2018-01-06T17:05:01.062Z,16.60
2018-01-06T17:07:29.449Z,15.70
2018-01-06T17:09:57.952Z,14.73
2018-01-06T17:12:26.398Z,14.60
2018-01-06T17:14:54.975Z,16.87
2018-01-06T17:17:23.486Z,14.40
2018-01-06T17:19:52.000Z,14.60
2018-01-06T17:22:20.448Z,16.77
2018-01-06T17:24:49.363Z,16.33
2018-01-06T17:27:17.876Z,15.10
2018-01-06T17:29:46.271Z,14.43
2018-01-06T17:32:14.865Z,15.55
2018-01-06T17:34:43.480Z,15.30
2018-01-06T17:37:12.054Z,16.57
2018-01-06T17:39:40.525Z,18.02
2018-01-06T17:42:09.176Z,17.17
2018-01-06T17:44:37.668Z,20.30
2018-01-06T17:47:06.134Z,19.80
2018-01-06T17:49:34.561Z,19.83
2018-01-06T17:52:03.003Z,16.30
2018-01-06T17:54:32.231Z,15.52
2018-01-06T17:57:00.680Z,17.33
2018-01-06T17:59:29.145Z,12.27
2018-01-06T18:01:57.653Z,10.90
2018-01-06T18:04:26.052Z,10.30
2018-01-06T18:06:54.588Z,8.07
2018-01-06T18:09:23.071Z,8.77
2018-01-06T18:11:52.400Z,8.07
2018-01-06T18:14:20.882Z,7.77
2018-01-06T18:16:49.271Z,8.10
2018-01-06T18:19:17.677Z,7.83
2018-01-06T18:21:46.132Z,6.00
2018-01-06T18:24:14.620Z,7.20
2018-01-06T18:26:43.988Z,6.05
2018-01-06T18:29:12.502Z,6.37
2018-01-06T18:31:41.091Z,7.40
2018-01-06T18:34:09.494Z,5.83
2018-01-06T18:36:37.920Z,5.13
2018-01-06T18:39:06.407Z,6.80
2018-01-06T18:41:34.878Z,6.90
2018-01-06T18:44:03.292Z,5.27
2018-01-06T18:46:31.771Z,6.75
2018-01-06T18:49:00.266Z,6.53
2018-01-06T18:51:28.700Z,6.10
2018-01-06T18:53:57.090Z,4.90
2018-01-06T18:56:25.527Z,5.90
2018-01-06T18:58:54.052Z,5.78
2018-01-06T19:01:22.546Z,7.62
2018-01-06T19:03:50.874Z,5.70
2018-01-06T19:06:19.344Z,5.70
2018-01-06T19:08:47.833Z,6.60
2018-01-06T19:11:16.512Z,7.77
2018-01-06T19:13:44.887Z,5.70
2018-01-06T19:16:13.306Z,5.80
2018-01-06T19:18:41.740Z,5.80
2018-01-06T19:21:10.275Z,5.87
2018-01-06T19:23:38.732Z,6.37
2018-01-06T19:26:07.161Z,6.10
2018-01-06T19:28:35.662Z,5.90
2018-01-06T19:31:04.073Z,5.70
2018-01-06T19:33:32.684Z,5.37
2018-01-06T19:36:01.227Z,7.00
2018-01-06T19:38:29.744Z,7.20
2018-01-06T19:40:58.161Z,5.90
2018-01-06T19:43:26.591Z,7.20
2018-01-06T19:45:56.968Z,6.80
2018-01-06T19:48:25.359Z,6.57
2018-01-06T19:50:53.807Z,6.10
2018-01-06T19:53:22.383Z,7.00
2018-01-06T19:55:50.839Z,6.22
2018-01-06T19:58:19.353Z,7.57
2018-01-06T20:00:47.736Z,7.45
2018-01-06T20:03:16.245Z,6.67
2018-01-06T20:05:44.597Z,7.80
2018-01-06T20:08:13.922Z,6.72
2018-01-06T20:10:42.245Z,7.57
2018-01-06T20:13:10.587Z,8.07
2018-01-06T20:15:38.910Z,7.05
2018-01-06T20:18:07.250Z,7.87
2018-01-06T20:20:35.573Z,7.10
2018-01-06T20:23:03.917Z,8.18
2018-01-06T20:25:33.179Z,8.70
2018-01-06T20:28:02.405Z,7.00
2018-01-06T20:30:30.726Z,6.67
2018-01-06T20:32:59.068Z,8.07
2018-01-06T20:35:27.396Z,7.93
2018-01-06T20:37:55.738Z,8.40
2018-01-06T20:40:24.066Z,7.95
2018-01-06T20:42:52.417Z,9.52
2018-01-06T20:45:20.738Z,7.97
2018-01-06T20:47:49.538Z,9.18
2018-01-06T20:50:17.830Z,7.93
2018-01-06T20:52:46.166Z,8.30
2018-01-06T20:55:14.490Z,8.43
2018-01-06T20:57:42.836Z,8.70
2018-01-06T21:00:11.211Z,8.80
2018-01-06T21:02:39.562Z,8.43
2018-01-06T21:05:07.878Z,9.30
2018-01-06T21:07:36.231Z,8.47
2018-01-06T21:10:04.550Z,8.73
2018-01-06T21:12:33.132Z,9.37
2018-01-06T21:15:01.462Z,8.60
2018-01-06T21:17:29.902Z,10.57
2018-01-06T21:19:58.257Z,9.37
2018-01-06T21:22:26.614Z,9.73
2018-01-06T21:24:55.548Z,9.33
2018-01-06T21:27:23.912Z,7.60
2018-01-06T21:29:52.300Z,8.93
2018-01-06T21:32:20.789Z,10.00
2018-01-06T21:34:49.130Z,8.67
2018-01-06T21:37:17.458Z,10.30
2018-01-06T21:39:45.802Z,8.20
2018-01-06T21:42:14.121Z,8.83
2018-01-06T21:44:43.226Z,8.27
2018-01-06T21:47:11.546Z,9.00
2018-01-06T21:49:39.890Z,9.50
2018-01-06T21:52:08.209Z,9.60
2018-01-06T21:54:36.559Z,8.95
2018-01-06T21:57:04.877Z,8.93
2018-01-06T21:59:33.225Z,9.13
2018-01-06T22:02:01.559Z,8.23
2018-01-06T22:04:30.930Z,8.40
2018-01-06T22:06:59.253Z,8.40
2018-01-06T22:09:27.594Z,7.37
2018-01-06T22:11:55.918Z,8.23
2018-01-06T22:14:24.268Z,9.60
2018-01-06T22:16:52.591Z,8.10
2018-01-06T22:19:20.959Z,6.93
2018-01-06T22:21:49.270Z,7.47
2018-01-06T22:24:18.658Z,6.85
2018-01-06T22:26:46.990Z,5.93
2018-01-06T22:29:15.339Z,6.90
2018-01-06T22:31:43.661Z,7.30
2018-01-06T22:34:12.010Z,7.10
2018-01-06T22:36:40.334Z,6.60
2018-01-06T22:39:08.673Z,6.32
2018-01-06T22:41:36.991Z,6.80
2018-01-06T22:44:05.321Z,6.10
2018-01-06T22:46:33.643Z,5.53
2018-01-06T22:49:01.986Z,6.53
2018-01-06T22:51:30.307Z,5.77
2018-01-06T22:53:58.654Z,5.40
2018-01-06T22:56:26.978Z,5.47
2018-01-06T22:58:55.325Z,7.22
2018-01-06T23:01:23.650Z,5.70
2018-01-06T23:03:51.991Z,6.17
2018-01-06T23:06:20.313Z,6.70
2018-01-06T23:08:48.682Z,6.60
2018-01-06T23:11:16.997Z,6.10
2018-01-06T23:13:45.337Z,6.12
2018-01-06T23:16:13.653Z,5.30
2018-01-06T23:18:41.990Z,5.30
2018-01-06T23:21:10.309Z,5.40
2018-01-06T23:23:38.658Z,5.83
2018-01-06T23:26:06.981Z,5.33
2018-01-06T23:28:35.329Z,5.73
2018-01-06T23:31:03.653Z,4.83
2018-01-06T23:33:31.970Z,5.00
2018-01-06T23:36:01.198Z,6.43
2018-01-06T23:38:29.522Z,6.00
2018-01-06T23:40:57.858Z,4.97
2018-01-06T23:43:26.182Z,6.07
2018-01-06T23:45:54.534Z,5.27
2018-01-06T23:48:22.870Z,7.00
2018-01-06T23:50:51.213Z,6.55
2018-01-06T23:53:19.531Z,5.62
2018-01-06T23:55:47.906Z,6.00
2018-01-06T23:58:16.185Z,5.47
